createdAt,value
2018-12-09T00:01:44.293Z,77.24
2018-12-09T00:04:14.409Z,77.06
2018-12-09T00:06:46.062Z,76.74
2018-12-09T00:09:16.361Z,77.36
2018-12-09T00:11:46.995Z,77.69
2018-12-09T00:14:17.196Z,77.33
2018-12-09T00:16:47.420Z,77.11
2018-12-09T00:19:17.576Z,77.43
2018-12-09T00:21:47.648Z,77.17
2018-12-09T00:24:17.714Z,77.15
2018-12-09T00:26:47.666Z,76.54
2018-12-09T00:29:17.737Z,76.50
2018-12-09T00:31:47.923Z,76.40
2018-12-09T00:34:18.170Z,76.62
2018-12-09T00:36:48.423Z,76.53
2018-12-09T00:39:18.769Z,76.82
2018-12-09T00:41:48.870Z,76.96
2018-12-09T00:44:18.853Z,76.78
2018-12-09T00:46:49.093Z,76.81
2018-12-09T00:49:19.659Z,76.84
2018-12-09T00:51:49.618Z,76.97
2018-12-09T00:54:20.109Z,76.84
2018-12-09T00:56:50.116Z,77.43
2018-12-09T00:59:20.170Z,77.57
2018-12-09T01:01:50.332Z,77.44
2018-12-09T01:04:20.975Z,77.63
2018-12-09T01:06:51.222Z,77.26
2018-12-09T01:09:21.255Z,77.62
2018-12-09T01:11:51.427Z,78.37
2018-12-09T01:14:22.560Z,78.11
2018-12-09T01:16:52.566Z,78.38
2018-12-09T01:19:22.317Z,78.44
2018-12-09T01:21:52.406Z,78.67
2018-12-09T01:24:22.475Z,77.97
2018-12-09T01:29:35.116Z,78.62
2018-12-09T01:32:05.676Z,78.93
2018-12-09T01:34:35.705Z,78.97
2018-12-09T01:37:06.445Z,79.75
2018-12-09T01:39:36.762Z,79.08
2018-12-09T01:42:07.135Z,79.64
2018-12-09T01:44:37.642Z,79.55
2018-12-09T01:47:07.435Z,79.96
2018-12-09T01:49:37.232Z,79.94
2018-12-09T01:52:07.501Z,80.06
2018-12-09T01:54:37.438Z,80.46
2018-12-09T01:57:07.493Z,80.29
2018-12-09T01:59:37.212Z,79.92
2018-12-09T02:02:07.545Z,80.19
2018-12-09T02:04:37.368Z,80.58
2018-12-09T02:07:07.201Z,80.43
2018-12-09T02:09:38.719Z,80.42
2018-12-09T02:12:09.509Z,80.56
2018-12-09T02:14:39.422Z,80.14
2018-12-09T02:17:09.407Z,80.78
2018-12-09T02:19:39.291Z,80.17
2018-12-09T02:22:09.561Z,80.25
2018-12-09T02:24:39.371Z,79.70
2018-12-09T02:27:09.739Z,79.29
2018-12-09T02:29:39.503Z,79.28
2018-12-09T02:32:10.334Z,78.82
2018-12-09T02:34:46.393Z,78.93
2018-12-09T02:37:16.711Z,78.68
2018-12-09T02:39:46.561Z,78.27
2018-12-09T02:42:16.720Z,78.35
2018-12-09T02:44:46.571Z,78.20
2018-12-09T02:47:17.532Z,77.77
2018-12-09T02:49:58.084Z,78.17
2018-12-09T02:52:28.169Z,78.90
2018-12-09T02:54:58.495Z,78.70
2018-12-09T02:57:28.273Z,79.33
2018-12-09T02:59:59.163Z,79.82
2018-12-09T03:02:41.235Z,80.06
2018-12-09T03:05:11.248Z,80.75
2018-12-09T03:07:41.439Z,81.43
2018-12-09T03:10:11.228Z,81.33
2018-12-09T03:12:41.546Z,81.44
2018-12-09T03:15:11.830Z,82.04
2018-12-09T03:17:42.544Z,82.32
2018-12-09T03:20:12.373Z,82.55
2018-12-09T03:22:42.175Z,83.86
2018-12-09T03:25:12.405Z,84.30
2018-12-09T03:27:42.302Z,83.75
2018-12-09T03:30:13.587Z,84.73
2018-12-09T03:32:43.349Z,84.45
2018-12-09T03:35:13.581Z,85.44
2018-12-09T03:37:43.407Z,85.55
2018-12-09T03:40:13.999Z,85.36
2018-12-09T03:42:44.208Z,85.51
2018-12-09T03:45:14.215Z,86.59
2018-12-09T03:47:44.112Z,86.00
2018-12-09T03:50:15.160Z,86.48
2018-12-09T03:52:45.895Z,86.05
2018-12-09T03:55:16.405Z,86.97
2018-12-09T03:57:46.191Z,87.01
2018-12-09T04:00:16.764Z,87.31
2018-12-09T04:02:46.612Z,87.07
2018-12-09T04:05:16.375Z,87.02
2018-12-09T04:07:46.470Z,86.73
2018-12-09T04:10:16.417Z,87.11
2018-12-09T04:12:46.242Z,87.00
2018-12-09T04:15:16.208Z,86.82
2018-12-09T04:17:46.317Z,86.45
2018-12-09T04:20:16.502Z,86.83
2018-12-09T04:22:46.859Z,87.07
2018-12-09T04:25:16.697Z,86.86
2018-12-09T04:27:46.545Z,86.80
2018-12-09T04:30:16.446Z,86.33
2018-12-09T04:32:46.376Z,86.07
2018-12-09T04:35:16.151Z,86.60
2018-12-09T04:37:46.245Z,85.75
2018-12-09T04:40:16.363Z,85.16
2018-12-09T04:42:47.020Z,84.90
2018-12-09T04:45:17.331Z,84.89
2018-12-09T04:47:47.210Z,84.75
2018-12-09T04:50:17.107Z,84.91
2018-12-09T04:52:47.277Z,84.88
2018-12-09T04:55:17.036Z,84.83
2018-12-09T04:57:47.594Z,84.39
2018-12-09T05:00:27.836Z,84.79
2018-12-09T05:02:58.052Z,85.11
2018-12-09T05:05:28.356Z,85.37
2018-12-09T05:07:58.307Z,85.71
2018-12-09T05:10:28.109Z,85.63
2018-12-09T05:12:58.578Z,86.04
2018-12-09T05:15:29.117Z,86.63
2018-12-09T05:17:59.207Z,86.71
2018-12-09T05:20:30.613Z,86.43
2018-12-09T05:23:01.448Z,86.02
2018-12-09T05:25:31.662Z,86.07
2018-12-09T05:28:01.418Z,86.41
2018-12-09T05:30:31.441Z,86.43
2018-12-09T05:33:01.424Z,86.09
2018-12-09T05:35:31.380Z,85.74
2018-12-09T05:38:01.405Z,85.54
2018-12-09T05:40:31.172Z,84.89
2018-12-09T05:43:01.230Z,85.15
2018-12-09T05:45:31.435Z,84.92
2018-12-09T05:48:01.201Z,84.85
2018-12-09T05:50:31.184Z,84.36
2018-12-09T05:53:01.272Z,84.05
2018-12-09T05:55:33.458Z,83.55
2018-12-09T05:58:03.414Z,83.56
2018-12-09T06:00:33.295Z,83.79
2018-12-09T06:03:03.454Z,83.26
2018-12-09T06:05:33.457Z,83.06
2018-12-09T06:08:03.663Z,82.75
2018-12-09T06:10:33.436Z,83.13
2018-12-09T06:13:03.249Z,82.50
2018-12-09T06:15:33.284Z,82.33
2018-12-09T06:18:10.083Z,82.30
2018-12-09T06:20:40.188Z,82.19
2018-12-09T06:23:11.194Z,81.82
2018-12-09T06:25:41.470Z,81.29
2018-12-09T06:28:11.572Z,81.06
2018-12-09T06:30:41.476Z,81.53
2018-12-09T06:33:11.354Z,81.16
2018-12-09T06:35:41.288Z,81.25
2018-12-09T06:38:11.161Z,81.29
2018-12-09T06:40:41.364Z,81.45
2018-12-09T06:43:11.428Z,81.44
2018-12-09T06:45:41.515Z,81.04
2018-12-09T06:48:12.488Z,81.00
2018-12-09T06:50:42.363Z,80.87
2018-12-09T06:53:12.535Z,80.91
2018-12-09T06:55:42.319Z,80.94
2018-12-09T06:58:12.429Z,81.61
2018-12-09T07:00:42.250Z,80.99
2018-12-09T07:03:12.309Z,81.25
2018-12-09T07:05:42.247Z,81.35
2018-12-09T07:08:12.351Z,81.12
2018-12-09T07:10:42.512Z,81.11
2018-12-09T07:13:12.567Z,81.09
2018-12-09T07:15:42.359Z,80.69
2018-12-09T07:18:12.532Z,81.03
2018-12-09T07:20:42.610Z,81.16
2018-12-09T07:23:12.483Z,80.86
2018-12-09T07:25:42.317Z,81.16
2018-12-09T07:28:12.137Z,81.23
2018-12-09T07:30:42.299Z,81.33
2018-12-09T07:33:13.058Z,80.90
2018-12-09T07:35:43.316Z,80.80
2018-12-09T07:38:13.142Z,80.92
2018-12-09T07:40:43.598Z,80.88
2018-12-09T07:43:13.427Z,80.58
2018-12-09T07:45:43.429Z,80.90
2018-12-09T07:48:13.553Z,80.64
2018-12-09T07:50:43.367Z,80.61
2018-12-09T07:53:13.654Z,80.29
2018-12-09T07:55:43.656Z,80.50
2018-12-09T07:58:13.545Z,81.10
2018-12-09T08:00:43.671Z,80.97
2018-12-09T08:03:13.537Z,81.18
2018-12-09T08:05:43.460Z,81.51
2018-12-09T08:08:13.531Z,81.52
2018-12-09T08:10:43.383Z,82.04
2018-12-09T08:13:13.677Z,81.66
2018-12-09T08:15:43.455Z,82.27
2018-12-09T08:18:13.372Z,82.84
2018-12-09T08:20:43.326Z,82.76
2018-12-09T08:23:13.448Z,82.13
2018-12-09T08:25:43.458Z,81.85
2018-12-09T08:28:13.284Z,82.73
2018-12-09T08:30:43.355Z,82.49
2018-12-09T08:33:13.568Z,81.93
2018-12-09T08:35:44.076Z,82.27
2018-12-09T08:38:15.015Z,82.22
2018-12-09T08:40:47.315Z,82.48
2018-12-09T08:43:18.740Z,83.00
2018-12-09T08:45:48.604Z,82.52
2018-12-09T08:48:18.524Z,82.46
2018-12-09T08:50:48.487Z,82.44
2018-12-09T08:53:19.175Z,83.39
2018-12-09T08:55:49.691Z,83.33
2018-12-09T08:58:22.937Z,83.02
2018-12-09T09:00:58.079Z,82.90
2018-12-09T09:03:32.446Z,82.58
2018-12-09T09:06:02.776Z,81.84
2018-12-09T09:08:34.300Z,82.30
2018-12-09T09:11:07.751Z,81.83
2018-12-09T09:13:37.687Z,81.33
2018-12-09T09:16:07.638Z,82.03
2018-12-09T09:18:37.387Z,81.52
2018-12-09T09:21:07.612Z,81.44
2018-12-09T09:23:37.990Z,81.24
2018-12-09T09:26:08.407Z,81.67
2018-12-09T09:28:38.738Z,80.98
2018-12-09T09:31:10.162Z,81.31
2018-12-09T09:33:40.515Z,80.92
2018-12-09T09:36:10.358Z,81.58
2018-12-09T09:38:40.540Z,81.57
2018-12-09T09:41:10.523Z,81.49
2018-12-09T09:43:40.505Z,82.15
2018-12-09T09:46:13.016Z,81.90
2018-12-09T09:48:45.243Z,82.25
2018-12-09T09:51:15.408Z,82.14
2018-12-09T09:53:45.330Z,81.96
2018-12-09T09:56:15.377Z,82.43
2018-12-09T09:58:46.079Z,82.42
2018-12-09T10:01:16.181Z,82.27
2018-12-09T10:03:46.439Z,81.80
2018-12-09T10:06:16.501Z,81.83
2018-12-09T10:08:46.334Z,80.72
2018-12-09T10:11:16.207Z,80.11
2018-12-09T10:13:46.561Z,79.43
2018-12-09T10:16:17.249Z,79.47
2018-12-09T10:18:52.792Z,79.09
2018-12-09T10:21:23.337Z,78.30
2018-12-09T10:23:53.620Z,77.61
2018-12-09T10:26:23.615Z,76.95
2018-12-09T10:28:53.407Z,76.49
2018-12-09T10:31:23.094Z,76.55
2018-12-09T10:33:53.372Z,75.93
2018-12-09T10:36:23.318Z,75.82
2018-12-09T10:38:53.341Z,75.66
2018-12-09T10:41:23.135Z,74.81
2018-12-09T10:43:53.340Z,75.22
2018-12-09T10:46:23.344Z,74.78
2018-12-09T10:48:53.360Z,75.34
2018-12-09T10:51:23.513Z,74.11
2018-12-09T10:53:53.284Z,73.95
2018-12-09T10:56:23.586Z,74.42
2018-12-09T10:58:53.867Z,74.55
2018-12-09T11:01:29.653Z,74.61
2018-12-09T11:04:01.005Z,73.97
2018-12-09T11:06:31.108Z,74.03
2018-12-09T11:09:01.368Z,73.56
2018-12-09T11:11:31.419Z,74.41
2018-12-09T11:14:01.580Z,74.18
2018-12-09T11:16:33.543Z,72.92
2018-12-09T11:19:04.120Z,73.74
2018-12-09T11:21:35.743Z,73.67
2018-12-09T11:24:05.847Z,73.24
2018-12-09T11:26:37.277Z,72.93
2018-12-09T11:29:08.097Z,73.40
2018-12-09T11:31:38.452Z,73.24
2018-12-09T11:34:08.550Z,72.68
2018-12-09T11:36:38.857Z,72.57
2018-12-09T11:39:09.401Z,73.08
2018-12-09T11:41:40.123Z,73.07
2018-12-09T11:44:11.862Z,73.04
2018-12-09T11:46:42.400Z,72.59
2018-12-09T11:49:12.354Z,72.74
2018-12-09T11:51:42.169Z,72.61
2018-12-09T11:54:12.326Z,72.51
2018-12-09T11:56:42.504Z,72.85
2018-12-09T11:59:12.501Z,71.90
2018-12-09T12:01:43.600Z,71.69
2018-12-09T12:04:13.351Z,70.89
2018-12-09T12:06:43.264Z,70.01
2018-12-09T12:09:13.468Z,69.42
2018-12-09T12:11:44.087Z,69.72
2018-12-09T12:14:14.954Z,69.53
2018-12-09T12:16:45.281Z,69.06
2018-12-09T12:19:15.634Z,68.59
2018-12-09T12:21:45.515Z,70.66
2018-12-09T12:24:15.389Z,73.40
2018-12-09T12:26:45.271Z,71.91
2018-12-09T12:29:15.352Z,71.68
2018-12-09T12:31:45.407Z,68.45
2018-12-09T12:34:15.222Z,67.39
2018-12-09T12:36:45.602Z,66.18
2018-12-09T12:39:15.498Z,67.86
2018-12-09T12:41:46.134Z,66.11
2018-12-09T12:44:18.149Z,68.01
2018-12-09T12:46:49.267Z,67.39
2018-12-09T12:49:20.448Z,68.50
2018-12-09T12:51:50.287Z,68.62
2018-12-09T12:54:21.152Z,68.43
2018-12-09T12:56:51.344Z,68.37
2018-12-09T12:59:21.159Z,68.57
2018-12-09T13:01:51.283Z,69.32
2018-12-09T13:04:21.129Z,69.24
2018-12-09T13:06:51.283Z,69.28
2018-12-09T13:09:22.005Z,69.86
2018-12-09T13:11:52.655Z,69.54
2018-12-09T13:14:22.465Z,70.23
2018-12-09T13:16:55.008Z,70.71
2018-12-09T13:19:26.813Z,71.58
2018-12-09T13:21:56.898Z,71.68
2018-12-09T13:24:28.713Z,71.61
2018-12-09T13:27:02.466Z,71.45
2018-12-09T13:29:32.731Z,71.76
2018-12-09T13:32:05.616Z,72.59
2018-12-09T13:34:36.145Z,73.20
2018-12-09T13:39:55.281Z,74.34
2018-12-09T13:42:25.463Z,74.45
2018-12-09T13:44:55.455Z,74.05
2018-12-09T13:47:25.521Z,74.87
2018-12-09T13:49:55.382Z,74.07
2018-12-09T13:52:25.710Z,75.21
2018-12-09T13:54:55.875Z,74.43
2018-12-09T13:57:26.772Z,74.54
2018-12-09T13:59:59.619Z,74.26
2018-12-09T14:02:29.433Z,73.55
2018-12-09T14:04:59.634Z,73.38
2018-12-09T14:07:29.427Z,73.27
2018-12-09T14:10:00.533Z,73.42
2018-12-09T14:12:30.282Z,73.38
2018-12-09T14:15:00.357Z,73.71
2018-12-09T14:17:30.532Z,73.60
2018-12-09T14:20:00.288Z,74.43
2018-12-09T14:22:30.647Z,74.51
2018-12-09T14:25:00.427Z,74.08
2018-12-09T14:27:30.394Z,73.88
2018-12-09T14:30:00.256Z,73.54
2018-12-09T14:32:30.046Z,73.91
2018-12-09T14:35:00.242Z,72.85
2018-12-09T14:37:30.347Z,73.14
2018-12-09T14:40:00.444Z,73.21
2018-12-09T14:42:30.520Z,72.93
2018-12-09T14:45:01.206Z,73.01
2018-12-09T14:47:31.456Z,72.37
2018-12-09T14:50:01.258Z,72.54
2018-12-09T14:52:31.401Z,72.33
2018-12-09T14:55:01.293Z,72.69
2018-12-09T14:57:31.600Z,72.80
2018-12-09T15:00:01.675Z,72.92
2018-12-09T15:02:31.848Z,73.00
2018-12-09T15:05:02.126Z,72.55
2018-12-09T15:07:32.262Z,72.85
2018-12-09T15:10:08.524Z,72.77
2018-12-09T15:12:35.308Z,72.46
2018-12-09T15:15:07.847Z,72.96
2018-12-09T15:17:37.934Z,73.05
2018-12-09T15:20:08.635Z,73.45
2018-12-09T15:22:38.567Z,73.49
2018-12-09T15:25:09.991Z,73.40
2018-12-09T15:27:40.254Z,73.46
2018-12-09T15:30:10.697Z,73.52
2018-12-09T15:32:40.547Z,73.60
2018-12-09T15:35:10.506Z,73.01
2018-12-09T15:37:41.509Z,72.76
2018-12-09T15:40:11.464Z,73.51
2018-12-09T15:42:41.190Z,73.49
2018-12-09T15:45:11.349Z,73.81
2018-12-09T15:47:41.570Z,73.85
2018-12-09T15:50:11.539Z,73.76
2018-12-09T15:52:42.654Z,73.68
2018-12-09T15:55:12.537Z,73.94
2018-12-09T15:57:42.484Z,74.01
2018-12-09T16:00:12.837Z,74.14
2018-12-09T16:02:42.993Z,74.62
2018-12-09T16:05:13.088Z,74.91
2018-12-09T16:07:43.193Z,75.29
2018-12-09T16:10:13.315Z,74.03
2018-12-09T16:12:43.156Z,74.01
2018-12-09T16:15:13.140Z,74.20
2018-12-09T16:17:43.233Z,74.15
2018-12-09T16:20:13.306Z,74.44
2018-12-09T16:22:44.100Z,73.62
2018-12-09T16:25:13.990Z,72.85
2018-12-09T16:27:44.052Z,73.44
2018-12-09T16:30:14.206Z,73.29
2018-12-09T16:32:44.132Z,73.42
2018-12-09T16:35:14.232Z,73.86
2018-12-09T16:37:44.231Z,74.40
2018-12-09T16:40:14.351Z,74.93
2018-12-09T16:42:44.469Z,75.55
2018-12-09T16:45:14.232Z,75.97
2018-12-09T16:47:44.793Z,76.59
2018-12-09T16:50:14.570Z,77.28
2018-12-09T16:52:44.351Z,77.41
2018-12-09T16:55:14.137Z,77.74
2018-12-09T16:57:44.119Z,79.40
2018-12-09T17:00:14.591Z,81.15
2018-12-09T17:02:44.321Z,82.24
2018-12-09T17:05:14.708Z,83.87
2018-12-09T17:07:44.573Z,86.27
2018-12-09T17:10:14.609Z,88.12
2018-12-09T17:12:44.684Z,89.26
2018-12-09T17:15:14.650Z,88.99
2018-12-09T17:17:45.507Z,88.05
2018-12-09T17:20:15.693Z,88.03
2018-12-09T17:22:45.588Z,87.78
2018-12-09T17:25:15.567Z,87.66
2018-12-09T17:27:45.401Z,87.19
2018-12-09T17:30:15.956Z,87.99
2018-12-09T17:32:46.515Z,87.86
2018-12-09T17:35:16.413Z,87.68
2018-12-09T17:37:48.264Z,87.45
2018-12-09T17:40:18.497Z,87.43
2018-12-09T17:42:50.012Z,86.98
2018-12-09T17:45:20.925Z,86.35
2018-12-09T17:47:51.087Z,85.50
2018-12-09T17:50:21.349Z,85.13
2018-12-09T17:52:52.026Z,85.10
2018-12-09T17:55:22.500Z,84.91
2018-12-09T17:57:52.909Z,88.06
2018-12-09T18:00:23.136Z,84.37
2018-12-09T18:02:53.540Z,83.48
2018-12-09T18:05:23.410Z,83.05
2018-12-09T18:07:53.863Z,83.51
2018-12-09T18:10:23.945Z,82.68
2018-12-09T18:12:54.139Z,82.98
2018-12-09T18:15:25.430Z,83.64
2018-12-09T18:17:55.462Z,83.29
2018-12-09T18:20:25.480Z,83.14
2018-12-09T18:22:55.854Z,83.08
2018-12-09T18:25:27.233Z,83.00
2018-12-09T18:27:58.920Z,82.96
2018-12-09T18:30:31.513Z,82.78
2018-12-09T18:33:03.479Z,82.79
2018-12-09T18:35:35.566Z,82.60
2018-12-09T18:38:05.675Z,82.76
2018-12-09T18:40:36.620Z,82.15
2018-12-09T18:43:06.698Z,81.87
2018-12-09T18:45:37.046Z,81.98
2018-12-09T18:48:08.618Z,81.92
2018-12-09T18:50:39.645Z,81.24
2018-12-09T18:53:18.951Z,81.07
2018-12-09T18:55:51.783Z,81.24
2018-12-09T18:58:22.820Z,81.07
2018-12-09T19:00:53.462Z,80.95
2018-12-09T19:03:25.098Z,81.41
2018-12-09T19:05:58.121Z,81.29
2018-12-09T19:08:30.245Z,81.15
2018-12-09T19:11:01.175Z,81.00
2018-12-09T19:13:34.610Z,80.33
2018-12-09T19:16:05.507Z,80.56
2018-12-09T19:18:37.448Z,80.67
2018-12-09T19:21:13.529Z,80.59
2018-12-09T19:23:45.139Z,80.46
2018-12-09T19:26:16.801Z,80.40
2018-12-09T19:28:47.854Z,80.24
2018-12-09T19:31:18.152Z,80.40
2018-12-09T19:33:49.123Z,80.19
2018-12-09T19:36:19.709Z,79.34
2018-12-09T19:38:50.512Z,79.34
2018-12-09T19:41:21.177Z,78.94
2018-12-09T19:43:51.641Z,78.89
2018-12-09T19:46:21.618Z,78.40
2018-12-09T19:48:51.911Z,78.77
2018-12-09T19:51:22.578Z,78.75
2018-12-09T19:53:52.609Z,78.72
2018-12-09T19:56:22.792Z,78.36
2018-12-09T19:58:53.162Z,78.26
2018-12-09T20:01:24.616Z,78.66
2018-12-09T20:03:57.027Z,78.37
2018-12-09T20:06:27.754Z,78.63
2018-12-09T20:08:58.518Z,78.96
2018-12-09T20:11:29.074Z,77.65
2018-12-09T20:13:59.692Z,77.94
2018-12-09T20:16:30.632Z,78.17
2018-12-09T20:19:00.456Z,78.50
2018-12-09T20:21:30.738Z,78.79
2018-12-09T20:24:00.652Z,78.70
2018-12-09T20:26:30.597Z,78.59
2018-12-09T20:29:02.092Z,78.58
2018-12-09T20:31:32.163Z,78.87
2018-12-09T20:34:02.907Z,78.80
2018-12-09T20:36:33.866Z,78.69
2018-12-09T20:39:08.559Z,78.28
2018-12-09T20:41:41.586Z,77.90
2018-12-09T20:44:13.942Z,77.43
2018-12-09T20:46:45.121Z,77.85
2018-12-09T20:49:17.239Z,78.16
2018-12-09T20:51:49.208Z,77.25
2018-12-09T20:54:25.322Z,76.92
2018-12-09T20:56:56.696Z,77.09
2018-12-09T20:59:26.920Z,76.87
2018-12-09T21:01:57.459Z,76.07
2018-12-09T21:07:30.448Z,76.21
2018-12-09T21:10:00.208Z,76.09
2018-12-09T21:12:30.253Z,75.94
2018-12-09T21:15:00.668Z,76.10
2018-12-09T21:17:30.685Z,76.28
2018-12-09T21:20:00.388Z,76.94
2018-12-09T21:22:30.087Z,77.72
2018-12-09T21:25:00.220Z,79.33
2018-12-09T21:27:30.168Z,80.88
2018-12-09T21:30:00.087Z,80.60
2018-12-09T21:32:30.094Z,81.99
2018-12-09T21:35:00.281Z,82.13
2018-12-09T21:37:30.336Z,83.06
2018-12-09T21:40:00.353Z,83.63
2018-12-09T21:42:30.248Z,83.95
2018-12-09T21:45:00.135Z,82.91
2018-12-09T21:47:30.241Z,82.81
2018-12-09T21:50:00.413Z,83.37
2018-12-09T21:52:30.133Z,82.95
2018-12-09T21:55:00.268Z,82.85
2018-12-09T21:57:30.187Z,82.52
2018-12-09T22:00:00.351Z,82.32
2018-12-09T22:02:30.158Z,81.23
2018-12-09T22:05:00.155Z,81.85
2018-12-09T22:07:30.282Z,81.54
2018-12-09T22:10:00.316Z,80.79
2018-12-09T22:12:30.459Z,81.12
2018-12-09T22:15:00.528Z,80.09
2018-12-09T22:17:30.411Z,79.86
2018-12-09T22:20:00.253Z,79.71
2018-12-09T22:22:30.331Z,80.13
2018-12-09T22:25:00.852Z,79.38
2018-12-09T22:27:30.773Z,79.69
2018-12-09T22:30:00.553Z,79.91
2018-12-09T22:32:30.688Z,79.47
2018-12-09T22:35:00.401Z,79.74
2018-12-09T22:37:30.276Z,80.43
2018-12-09T22:40:00.231Z,80.17
2018-12-09T22:42:30.492Z,79.80
2018-12-09T22:45:00.363Z,80.17
2018-12-09T22:47:30.532Z,81.01
2018-12-09T22:50:00.793Z,81.86
2018-12-09T22:52:30.548Z,81.95
2018-12-09T22:55:00.378Z,81.53
2018-12-09T22:57:30.491Z,81.73
2018-12-09T23:00:00.469Z,81.79
2018-12-09T23:02:35.510Z,82.33
2018-12-09T23:05:05.979Z,82.40
2018-12-09T23:07:41.369Z,81.96
2018-12-09T23:10:11.386Z,81.64
2018-12-09T23:12:41.565Z,81.57
2018-12-09T23:15:11.380Z,81.73
2018-12-09T23:17:41.183Z,81.96
2018-12-09T23:20:11.546Z,81.79
2018-12-09T23:22:41.531Z,81.91
2018-12-09T23:25:11.471Z,81.39
2018-12-09T23:27:41.414Z,81.49
2018-12-09T23:30:15.413Z,81.89
2018-12-09T23:32:45.861Z,81.98
2018-12-09T23:35:15.660Z,82.76
2018-12-09T23:37:45.507Z,84.47
2018-12-09T23:40:15.549Z,85.50
2018-12-09T23:42:45.677Z,86.90
2018-12-09T23:45:16.098Z,87.30
2018-12-09T23:47:47.461Z,87.39
2018-12-09T23:50:17.708Z,87.46
2018-12-09T23:52:47.425Z,87.07
2018-12-09T23:55:17.419Z,87.09
2018-12-09T23:57:47.496Z,86.53
